createdAt,value
2019-03-24T00:01:43.490Z,26.40
2019-03-24T00:04:15.782Z,37.10
2019-03-24T00:06:48.214Z,37.73
2019-03-24T00:09:20.447Z,40.50
2019-03-24T00:11:52.599Z,38.13
2019-03-24T00:14:24.829Z,35.30
2019-03-24T00:16:57.189Z,31.70
2019-03-24T00:19:29.704Z,26.00
2019-03-24T00:22:01.945Z,28.47
2019-03-24T00:24:34.006Z,28.43
2019-03-24T00:27:06.259Z,29.50
2019-03-24T00:29:38.478Z,27.40
2019-03-24T00:32:10.860Z,27.57
2019-03-24T00:34:43.307Z,31.27
2019-03-24T00:37:15.593Z,29.40
2019-03-24T00:39:48.027Z,30.13
2019-03-24T00:42:20.362Z,29.57
2019-03-24T00:44:52.711Z,28.60
2019-03-24T00:47:24.885Z,28.93
2019-03-24T00:49:57.085Z,27.27
2019-03-24T00:52:29.301Z,24.30
2019-03-24T00:55:01.493Z,22.67
2019-03-24T00:57:34.154Z,19.20
2019-03-24T01:00:07.756Z,16.73
2019-03-24T01:02:40.148Z,16.67
2019-03-24T01:05:12.423Z,20.27
2019-03-24T01:07:45.389Z,20.83
2019-03-24T01:10:18.164Z,18.07
2019-03-24T01:12:50.506Z,15.73
2019-03-24T01:15:22.799Z,16.90
2019-03-24T01:17:57.327Z,14.37
2019-03-24T01:20:29.140Z,13.23
2019-03-24T01:23:01.370Z,10.63
2019-03-24T01:25:33.617Z,11.03
2019-03-24T01:28:05.753Z,11.33
2019-03-24T01:30:38.152Z,9.60
2019-03-24T01:33:10.336Z,9.30
2019-03-24T01:35:42.933Z,9.90
2019-03-24T01:38:15.576Z,9.43
2019-03-24T01:40:47.879Z,10.03
2019-03-24T01:43:20.093Z,9.73
2019-03-24T01:45:58.474Z,9.70
2019-03-24T01:48:26.548Z,11.67
2019-03-24T01:50:58.746Z,11.00
2019-03-24T01:53:30.963Z,11.40
2019-03-24T01:56:03.286Z,11.63
2019-03-24T01:58:35.672Z,12.30
2019-03-24T02:01:07.890Z,11.43
2019-03-24T02:03:40.085Z,11.27
2019-03-24T02:06:12.335Z,11.17
2019-03-24T02:08:44.924Z,10.70
2019-03-24T02:11:17.303Z,12.30
2019-03-24T02:13:49.505Z,10.77
2019-03-24T02:16:21.866Z,10.90
2019-03-24T02:18:55.023Z,11.73
2019-03-24T02:21:27.309Z,11.77
2019-03-24T02:23:59.607Z,11.17
2019-03-24T02:26:31.950Z,10.67
2019-03-24T02:29:04.311Z,10.90
2019-03-24T02:31:36.657Z,10.50
2019-03-24T02:34:09.164Z,11.40
2019-03-24T02:36:41.243Z,10.20
2019-03-24T02:39:13.714Z,10.87
2019-03-24T02:41:45.929Z,11.23
2019-03-24T02:44:18.275Z,10.30
2019-03-24T02:46:50.379Z,9.57
2019-03-24T02:49:23.011Z,9.83
2019-03-24T02:51:55.381Z,9.40
2019-03-24T02:54:27.822Z,8.87
2019-03-24T02:57:00.625Z,9.17
2019-03-24T02:59:33.905Z,9.73
2019-03-24T03:02:06.313Z,8.90
2019-03-24T03:04:38.626Z,9.23
2019-03-24T03:07:11.662Z,10.30
2019-03-24T03:09:44.146Z,10.83
2019-03-24T03:12:17.668Z,11.20
2019-03-24T03:14:50.339Z,11.10
2019-03-24T03:17:23.751Z,12.47
2019-03-24T03:19:56.030Z,11.87
2019-03-24T03:22:28.568Z,12.73
2019-03-24T03:25:00.644Z,13.00
2019-03-24T03:27:32.815Z,11.83
2019-03-24T03:30:05.210Z,13.33
2019-03-24T03:32:37.744Z,13.83
2019-03-24T03:35:10.550Z,13.03
2019-03-24T03:37:43.963Z,13.80
2019-03-24T03:40:16.489Z,14.03
2019-03-24T03:42:48.861Z,14.10
2019-03-24T03:45:29.013Z,14.80
2019-03-24T03:48:01.444Z,14.30
2019-03-24T03:50:33.717Z,15.33
2019-03-24T03:53:05.955Z,13.50
2019-03-24T03:55:38.250Z,14.30
2019-03-24T03:58:10.421Z,14.80
2019-03-24T04:00:42.696Z,14.43
2019-03-24T04:03:14.956Z,13.97
2019-03-24T04:05:47.233Z,13.40
2019-03-24T04:08:19.622Z,13.90
2019-03-24T04:10:52.074Z,12.73
2019-03-24T04:13:24.341Z,13.97
2019-03-24T04:15:56.582Z,13.07
2019-03-24T04:18:28.983Z,14.10
2019-03-24T04:21:01.384Z,13.93
2019-03-24T04:23:33.725Z,14.03
2019-03-24T04:26:06.105Z,13.13
2019-03-24T04:28:38.349Z,14.50
2019-03-24T04:31:10.582Z,12.93
2019-03-24T04:33:42.828Z,12.97
2019-03-24T04:36:14.983Z,13.60
2019-03-24T04:38:47.255Z,13.23
2019-03-24T04:41:19.524Z,13.90
2019-03-24T04:43:51.802Z,13.57
2019-03-24T04:46:24.272Z,12.93
2019-03-24T04:48:56.587Z,13.23
2019-03-24T04:51:28.864Z,12.37
2019-03-24T04:54:01.180Z,11.93
2019-03-24T04:56:33.518Z,12.40
2019-03-24T04:59:05.622Z,12.63
2019-03-24T05:01:37.888Z,12.73
2019-03-24T05:04:10.055Z,11.20
2019-03-24T05:06:43.348Z,11.53
2019-03-24T05:09:17.132Z,11.73
2019-03-24T05:11:49.358Z,11.53
2019-03-24T05:14:21.858Z,10.30
2019-03-24T05:16:53.990Z,10.10
2019-03-24T05:19:26.578Z,10.57
2019-03-24T05:21:58.781Z,10.63
2019-03-24T05:24:31.217Z,10.43
2019-03-24T05:27:06.152Z,10.77
2019-03-24T05:29:38.493Z,11.03
2019-03-24T05:32:10.621Z,10.03
2019-03-24T05:34:42.858Z,9.97
2019-03-24T05:37:15.192Z,10.53
2019-03-24T05:39:47.679Z,10.27
2019-03-24T05:42:19.821Z,10.30
2019-03-24T05:44:52.376Z,10.40
2019-03-24T05:47:24.948Z,10.73
2019-03-24T05:49:57.252Z,10.30
2019-03-24T05:52:29.568Z,11.00
2019-03-24T05:55:01.703Z,10.73
2019-03-24T05:57:34.230Z,10.40
2019-03-24T06:00:07.325Z,11.00
2019-03-24T06:02:39.624Z,11.53
2019-03-24T06:05:12.309Z,11.47
2019-03-24T06:07:44.515Z,11.63
2019-03-24T06:10:16.714Z,10.27
2019-03-24T06:12:49.077Z,10.90
2019-03-24T06:15:21.343Z,11.10
2019-03-24T06:17:53.849Z,11.33
2019-03-24T06:20:26.132Z,10.23
2019-03-24T06:22:58.292Z,8.43
2019-03-24T06:25:30.583Z,8.90
2019-03-24T06:28:02.722Z,9.47
2019-03-24T06:30:35.489Z,9.77
2019-03-24T06:33:07.950Z,10.10
2019-03-24T06:35:41.852Z,9.80
2019-03-24T06:38:14.142Z,8.00
2019-03-24T06:40:46.342Z,8.20
2019-03-24T06:43:18.472Z,8.90
2019-03-24T06:45:50.752Z,7.97
2019-03-24T06:48:23.072Z,7.97
2019-03-24T06:50:55.475Z,8.87
2019-03-24T06:53:27.644Z,8.30
2019-03-24T06:55:59.932Z,8.83
2019-03-24T06:58:32.191Z,8.43
2019-03-24T07:01:04.472Z,9.73
2019-03-24T07:03:36.702Z,9.63
2019-03-24T07:06:09.012Z,9.00
2019-03-24T07:08:41.222Z,8.90
2019-03-24T07:11:13.988Z,8.43
2019-03-24T07:13:47.382Z,8.33
2019-03-24T07:16:19.642Z,8.67
2019-03-24T07:18:51.772Z,9.07
2019-03-24T07:21:25.012Z,8.23
2019-03-24T07:23:57.402Z,9.27
2019-03-24T07:26:29.612Z,9.30
2019-03-24T07:29:01.912Z,10.00
2019-03-24T07:31:34.422Z,9.37
2019-03-24T07:34:07.922Z,9.77
2019-03-24T07:36:40.142Z,10.33
2019-03-24T07:39:13.422Z,9.47
2019-03-24T07:41:45.864Z,10.03
2019-03-24T07:44:18.232Z,9.43
2019-03-24T07:46:51.457Z,10.20
2019-03-24T07:49:23.602Z,9.50
2019-03-24T07:51:55.873Z,9.80
2019-03-24T07:54:28.053Z,10.10
2019-03-24T07:57:00.302Z,9.17
2019-03-24T07:59:33.588Z,9.33
2019-03-24T08:02:05.972Z,9.53
2019-03-24T08:04:38.173Z,10.03
2019-03-24T08:07:10.302Z,10.10
2019-03-24T08:09:42.813Z,10.17
2019-03-24T08:12:15.163Z,8.63
2019-03-24T08:14:47.644Z,9.80
2019-03-24T08:17:19.982Z,9.23
2019-03-24T08:19:51.973Z,10.43
2019-03-24T08:22:24.323Z,9.07
2019-03-24T08:24:56.543Z,9.40
2019-03-24T08:27:28.872Z,8.37
2019-03-24T08:30:01.113Z,8.20
2019-03-24T08:32:33.392Z,8.67
2019-03-24T08:35:05.821Z,7.93
2019-03-24T08:37:38.702Z,7.63
2019-03-24T08:40:11.152Z,8.60
2019-03-24T08:42:43.473Z,8.23
2019-03-24T08:45:19.572Z,8.67
2019-03-24T08:47:51.863Z,8.10
2019-03-24T08:50:24.113Z,8.17
2019-03-24T08:52:58.173Z,7.93
2019-03-24T08:55:32.779Z,7.90
2019-03-24T08:58:06.339Z,7.60
2019-03-24T09:00:41.062Z,7.83
2019-03-24T09:03:13.550Z,7.53
2019-03-24T09:05:45.935Z,7.33
2019-03-24T09:08:18.182Z,7.47
2019-03-24T09:10:50.520Z,7.90
2019-03-24T09:13:22.993Z,7.27
2019-03-24T09:15:55.413Z,7.57
2019-03-24T09:18:27.552Z,8.03
2019-03-24T09:21:00.772Z,7.43
2019-03-24T09:23:33.628Z,7.30
2019-03-24T09:26:07.302Z,7.23
2019-03-24T09:28:39.612Z,6.57
2019-03-24T09:31:12.017Z,7.17
2019-03-24T09:33:45.170Z,6.93
2019-03-24T09:36:17.806Z,6.73
2019-03-24T09:38:50.489Z,7.83
2019-03-24T09:41:23.415Z,7.53
2019-03-24T09:43:56.756Z,7.37
2019-03-24T09:46:29.426Z,7.17
2019-03-24T09:49:03.721Z,6.93
2019-03-24T09:51:37.012Z,6.87
2019-03-24T09:54:09.472Z,7.10
2019-03-24T09:56:41.998Z,7.47
2019-03-24T09:59:15.042Z,7.93
2019-03-24T10:01:47.804Z,7.43
2019-03-24T10:04:21.062Z,7.57
2019-03-24T10:06:55.632Z,6.80
2019-03-24T10:09:27.999Z,7.33
2019-03-24T10:12:03.067Z,6.70
2019-03-24T10:14:35.422Z,7.57
2019-03-24T10:17:07.863Z,7.27
2019-03-24T10:19:41.404Z,6.40
2019-03-24T10:22:13.762Z,7.00
2019-03-24T10:24:47.122Z,6.10
2019-03-24T10:27:19.684Z,6.70
2019-03-24T10:29:52.932Z,6.67
2019-03-24T10:32:25.332Z,7.53
2019-03-24T10:34:58.365Z,7.00
2019-03-24T10:37:32.152Z,6.27
2019-03-24T10:40:04.909Z,6.77
2019-03-24T10:42:38.112Z,6.40
2019-03-24T10:45:11.253Z,6.77
2019-03-24T10:47:45.813Z,6.00
2019-03-24T10:50:18.032Z,5.97
2019-03-24T10:52:50.252Z,6.40
2019-03-24T10:55:22.613Z,5.80
2019-03-24T10:57:54.712Z,6.33
2019-03-24T11:00:41.392Z,6.33
2019-03-24T11:03:13.742Z,5.97
2019-03-24T11:05:45.909Z,6.00
2019-03-24T11:08:18.112Z,5.57
2019-03-24T11:10:50.382Z,5.57
2019-03-24T11:13:22.752Z,5.90
2019-03-24T11:15:54.962Z,5.27
2019-03-24T11:18:27.302Z,5.20
2019-03-24T11:20:59.462Z,5.43
2019-03-24T11:23:31.792Z,6.10
2019-03-24T11:26:04.003Z,5.40
2019-03-24T11:28:36.295Z,5.67
2019-03-24T11:31:08.585Z,5.50
2019-03-24T11:33:40.696Z,5.60
2019-03-24T11:36:13.009Z,5.83
2019-03-24T11:38:45.225Z,5.90
2019-03-24T11:41:17.436Z,5.77
2019-03-24T11:43:49.839Z,5.80
2019-03-24T11:46:22.006Z,5.63
2019-03-24T11:48:54.296Z,5.83
2019-03-24T11:51:26.912Z,5.57
2019-03-24T11:53:59.342Z,5.47
2019-03-24T11:56:31.586Z,5.97
2019-03-24T11:59:03.886Z,5.73
2019-03-24T12:01:38.391Z,5.87
2019-03-24T12:04:11.010Z,5.73
2019-03-24T12:06:43.360Z,5.57
2019-03-24T12:09:15.671Z,5.40
2019-03-24T12:11:59.884Z,5.60
2019-03-24T12:14:33.183Z,4.77
2019-03-24T12:17:05.629Z,6.10
2019-03-24T12:19:38.030Z,5.47
2019-03-24T12:22:10.122Z,5.97
2019-03-24T12:24:42.396Z,5.63
2019-03-24T12:27:14.698Z,4.80
2019-03-24T12:29:46.961Z,4.97
2019-03-24T12:32:19.144Z,3.60
2019-03-24T12:34:51.202Z,4.00
2019-03-24T12:37:23.607Z,3.70
2019-03-24T12:39:58.013Z,4.10
2019-03-24T12:42:29.750Z,3.13
2019-03-24T12:45:02.109Z,3.20
2019-03-24T12:47:34.405Z,3.20
2019-03-24T12:50:09.303Z,3.53
2019-03-24T12:52:42.140Z,3.87
2019-03-24T12:55:14.762Z,4.03
2019-03-24T12:57:47.270Z,4.10
2019-03-24T13:00:38.111Z,4.10
2019-03-24T13:03:10.594Z,3.43
2019-03-24T13:05:43.052Z,3.57
2019-03-24T13:08:18.931Z,3.73
2019-03-24T13:10:51.209Z,3.70
2019-03-24T13:13:23.441Z,4.40
2019-03-24T13:15:55.711Z,3.73
2019-03-24T13:18:28.047Z,3.70
2019-03-24T13:21:00.300Z,3.80
2019-03-24T13:23:32.634Z,3.70
2019-03-24T13:26:05.338Z,3.83
2019-03-24T13:28:37.895Z,4.10
2019-03-24T13:31:10.208Z,4.03
2019-03-24T13:33:42.601Z,3.70
2019-03-24T13:36:15.060Z,3.87
2019-03-24T13:38:47.351Z,4.20
2019-03-24T13:41:19.698Z,4.10
2019-03-24T13:43:51.973Z,3.80
2019-03-24T13:46:24.302Z,3.93
2019-03-24T13:48:56.789Z,4.37
2019-03-24T13:51:29.261Z,3.93
2019-03-24T13:54:01.532Z,4.23
2019-03-24T13:56:33.843Z,4.43
2019-03-24T13:59:06.105Z,4.37
2019-03-24T14:01:38.404Z,3.77
2019-03-24T14:04:10.643Z,4.00
2019-03-24T14:06:44.104Z,4.30
2019-03-24T14:09:16.288Z,3.40
2019-03-24T14:11:48.631Z,3.40
2019-03-24T14:14:20.943Z,3.50
2019-03-24T14:16:53.226Z,4.27
2019-03-24T14:19:25.741Z,3.97
2019-03-24T14:21:57.989Z,4.13
2019-03-24T14:24:30.279Z,4.83
2019-03-24T14:27:03.573Z,4.30
2019-03-24T14:29:35.884Z,4.47
2019-03-24T14:32:07.996Z,4.13
2019-03-24T14:34:40.372Z,4.10
2019-03-24T14:37:12.603Z,4.43
2019-03-24T14:39:44.820Z,3.80
2019-03-24T14:42:17.142Z,4.43
2019-03-24T14:44:49.240Z,3.90
2019-03-24T14:47:21.544Z,3.73
2019-03-24T14:49:53.784Z,4.30
2019-03-24T14:52:25.993Z,3.80
2019-03-24T14:54:58.443Z,3.93
2019-03-24T14:57:31.323Z,4.77
2019-03-24T15:00:03.672Z,4.73
2019-03-24T15:02:37.587Z,4.13
2019-03-24T15:05:10.158Z,4.20
2019-03-24T15:07:42.485Z,4.10
2019-03-24T15:10:14.904Z,4.30
2019-03-24T15:12:47.157Z,4.40
2019-03-24T15:15:20.366Z,3.40
2019-03-24T15:17:52.775Z,3.70
2019-03-24T15:20:25.215Z,4.47
2019-03-24T15:22:57.547Z,4.10
2019-03-24T15:25:30.255Z,3.80
2019-03-24T15:28:02.742Z,3.37
2019-03-24T15:30:35.126Z,3.67
2019-03-24T15:33:07.393Z,3.50
2019-03-24T15:35:39.553Z,8.23
2019-03-24T15:38:12.092Z,5.57
2019-03-24T15:40:44.319Z,3.40
2019-03-24T15:43:16.567Z,3.60
2019-03-24T15:45:48.912Z,3.77
2019-03-24T15:48:21.632Z,3.60
2019-03-24T15:50:53.806Z,3.13
2019-03-24T15:53:26.383Z,3.40
2019-03-24T15:55:58.635Z,3.30
2019-03-24T15:58:30.975Z,3.70
2019-03-24T16:01:03.564Z,4.13
2019-03-24T16:03:35.885Z,3.90
2019-03-24T16:06:08.155Z,4.07
2019-03-24T16:08:40.436Z,4.13
2019-03-24T16:11:12.706Z,4.27
2019-03-24T16:13:44.876Z,4.50
2019-03-24T16:16:17.234Z,4.43
2019-03-24T16:18:49.666Z,4.77
2019-03-24T16:21:27.705Z,4.13
2019-03-24T16:23:56.914Z,4.47
2019-03-24T16:26:29.485Z,7.07
2019-03-24T16:29:01.962Z,5.07
2019-03-24T16:31:34.149Z,4.23
2019-03-24T16:34:06.432Z,4.40
2019-03-24T16:36:38.727Z,4.43
2019-03-24T16:39:11.105Z,3.90
2019-03-24T16:41:43.528Z,4.90
2019-03-24T16:44:15.822Z,4.47
2019-03-24T16:46:48.110Z,4.53
2019-03-24T16:49:20.251Z,4.40
2019-03-24T16:51:52.543Z,4.57
2019-03-24T16:54:25.053Z,5.03
2019-03-24T16:56:57.197Z,4.97
2019-03-24T16:59:29.230Z,4.00
2019-03-24T17:02:01.621Z,4.10
2019-03-24T17:04:33.945Z,4.53
2019-03-24T17:07:06.444Z,4.47
2019-03-24T17:09:38.782Z,4.70
2019-03-24T17:12:11.042Z,4.00
2019-03-24T17:14:43.437Z,4.63
2019-03-24T17:17:15.734Z,3.97
2019-03-24T17:19:48.105Z,5.10
2019-03-24T17:22:20.386Z,4.30
2019-03-24T17:24:52.974Z,5.00
2019-03-24T17:27:25.225Z,4.40
2019-03-24T17:29:57.509Z,4.60
2019-03-24T17:32:29.768Z,3.93
2019-03-24T17:35:02.494Z,4.60
2019-03-24T17:37:34.907Z,4.70
2019-03-24T17:40:09.707Z,4.53
2019-03-24T17:42:41.885Z,4.83
2019-03-24T17:45:14.928Z,4.60
2019-03-24T17:47:47.089Z,4.97
2019-03-24T17:50:19.567Z,5.53
2019-03-24T17:52:52.207Z,6.03
2019-03-24T17:55:27.776Z,5.10
2019-03-24T17:57:58.449Z,4.50
2019-03-24T18:00:39.409Z,5.00
2019-03-24T18:03:12.073Z,4.87
2019-03-24T18:05:44.389Z,4.83
2019-03-24T18:08:16.674Z,5.23
2019-03-24T18:10:49.311Z,4.90
2019-03-24T18:13:22.659Z,4.90
2019-03-24T18:15:54.884Z,5.90
2019-03-24T18:18:27.209Z,5.67
2019-03-24T18:20:59.496Z,5.37
2019-03-24T18:23:31.841Z,6.17
2019-03-24T18:26:04.412Z,5.73
2019-03-24T18:28:36.702Z,5.57
2019-03-24T18:31:09.292Z,5.97
2019-03-24T18:33:41.663Z,5.47
2019-03-24T18:36:14.075Z,5.93
2019-03-24T18:38:46.652Z,5.60
2019-03-24T18:41:19.038Z,5.87
2019-03-24T18:43:53.453Z,6.60
2019-03-24T18:46:26.642Z,6.37
2019-03-24T18:48:58.812Z,5.93
2019-03-24T18:51:31.131Z,6.00
2019-03-24T18:54:03.405Z,6.30
2019-03-24T18:56:35.813Z,7.00
2019-03-24T18:59:08.012Z,7.10
2019-03-24T19:01:40.335Z,6.50
2019-03-24T19:04:12.764Z,7.37
2019-03-24T19:06:44.926Z,6.57
2019-03-24T19:09:17.224Z,6.03
2019-03-24T19:11:51.691Z,7.00
2019-03-24T19:14:23.682Z,7.10
2019-03-24T19:16:56.044Z,7.27
2019-03-24T19:19:28.312Z,6.83
2019-03-24T19:22:00.486Z,6.80
2019-03-24T19:24:32.772Z,6.47
2019-03-24T19:27:05.052Z,6.33
2019-03-24T19:29:45.180Z,5.90
2019-03-24T19:32:17.479Z,5.77
2019-03-24T19:34:49.802Z,5.77
2019-03-24T19:37:22.099Z,5.03
2019-03-24T19:39:54.680Z,5.40
2019-03-24T19:42:26.919Z,5.53
2019-03-24T19:44:59.282Z,6.00
2019-03-24T19:47:31.440Z,6.37
2019-03-24T19:50:03.789Z,5.60
2019-03-24T19:52:44.529Z,6.07
2019-03-24T19:55:10.970Z,5.77
2019-03-24T19:57:43.310Z,6.03
2019-03-24T20:00:15.737Z,5.90
2019-03-24T20:02:48.009Z,6.00
2019-03-24T20:05:20.298Z,5.40
2019-03-24T20:07:52.440Z,6.43
2019-03-24T20:10:25.819Z,6.10
2019-03-24T20:12:58.288Z,5.63
2019-03-24T20:15:30.478Z,5.80
2019-03-24T20:18:02.871Z,6.30
2019-03-24T20:20:35.049Z,7.07
2019-03-24T20:23:07.300Z,6.70
2019-03-24T20:25:39.600Z,6.40
2019-03-24T20:28:11.849Z,6.43
2019-03-24T20:30:44.098Z,7.40
2019-03-24T20:33:17.188Z,7.60
2019-03-24T20:35:49.536Z,8.50
2019-03-24T20:38:21.888Z,7.23
2019-03-24T20:40:54.230Z,9.83
2019-03-24T20:43:26.528Z,8.03
2019-03-24T20:45:58.773Z,7.50
2019-03-24T20:48:30.958Z,7.73
2019-03-24T20:51:03.291Z,7.60
2019-03-24T20:53:35.538Z,7.10
2019-03-24T20:56:07.779Z,6.80
2019-03-24T20:58:40.026Z,7.10
2019-03-24T21:01:12.368Z,8.00
2019-03-24T21:03:45.280Z,6.87
2019-03-24T21:06:17.530Z,7.30
2019-03-24T21:08:49.758Z,6.57
2019-03-24T21:11:23.098Z,6.67
2019-03-24T21:13:55.388Z,7.60
2019-03-24T21:16:27.519Z,7.20
2019-03-24T21:18:59.859Z,6.40
2019-03-24T21:21:32.119Z,7.33
2019-03-24T21:24:04.448Z,7.70
2019-03-24T21:26:36.588Z,7.23
2019-03-24T21:29:08.967Z,7.17
2019-03-24T21:31:41.268Z,8.23
2019-03-24T21:34:13.551Z,7.70
2019-03-24T21:36:45.818Z,7.83
2019-03-24T21:39:18.339Z,8.53
2019-03-24T21:41:50.638Z,8.57
2019-03-24T21:44:22.878Z,8.80
2019-03-24T21:46:56.629Z,8.40
2019-03-24T21:49:29.102Z,8.47
2019-03-24T21:52:01.248Z,9.03
2019-03-24T21:54:33.306Z,9.13
2019-03-24T21:57:06.490Z,9.33
2019-03-24T21:59:38.978Z,9.00
2019-03-24T22:02:11.419Z,8.67
2019-03-24T22:04:43.748Z,9.90
2019-03-24T22:07:16.228Z,9.67
2019-03-24T22:09:48.716Z,9.43
2019-03-24T22:12:20.848Z,9.63
2019-03-24T22:14:53.008Z,10.23
2019-03-24T22:17:25.078Z,10.20
2019-03-24T22:19:58.378Z,9.60
2019-03-24T22:22:30.567Z,10.27
2019-03-24T22:25:02.788Z,10.73
2019-03-24T22:27:35.080Z,10.40
2019-03-24T22:30:07.706Z,10.73
2019-03-24T22:32:39.916Z,11.17
2019-03-24T22:35:12.110Z,10.93
2019-03-24T22:37:44.288Z,10.80
2019-03-24T22:40:16.649Z,11.63
2019-03-24T22:42:48.804Z,12.27
2019-03-24T22:45:21.072Z,12.23
2019-03-24T22:47:53.521Z,12.30
2019-03-24T22:50:25.828Z,12.50
2019-03-24T22:52:58.008Z,12.70
2019-03-24T22:55:30.258Z,13.53
2019-03-24T22:58:02.542Z,12.87
2019-03-24T23:00:51.668Z,12.40
2019-03-24T23:03:25.239Z,12.87
2019-03-24T23:05:57.817Z,13.67
2019-03-24T23:08:30.608Z,15.10
2019-03-24T23:11:03.428Z,14.20
2019-03-24T23:13:35.568Z,17.37
2019-03-24T23:16:07.778Z,16.53
2019-03-24T23:18:39.838Z,16.67
2019-03-24T23:21:13.092Z,18.70
2019-03-24T23:23:45.608Z,19.73
2019-03-24T23:26:18.126Z,19.83
2019-03-24T23:28:50.489Z,19.53
2019-03-24T23:31:22.828Z,18.97
2019-03-24T23:33:55.128Z,19.93
2019-03-24T23:36:27.478Z,20.07
2019-03-24T23:39:00.048Z,20.40
2019-03-24T23:41:32.388Z,19.63
2019-03-24T23:44:04.929Z,20.80
2019-03-24T23:46:37.208Z,19.40
2019-03-24T23:49:09.528Z,19.50
2019-03-24T23:51:41.926Z,18.00
2019-03-24T23:54:26.208Z,18.83
2019-03-24T23:56:49.048Z,19.93
2019-03-24T23:59:21.408Z,19.10
